createdAt,value
2023-01-25T00:00:53.128Z,79.25
2023-01-25T00:02:13.932Z,84.03
2023-01-25T00:03:34.537Z,80.03
2023-01-25T00:04:55.139Z,80.57
2023-01-25T00:06:16.172Z,74.72
2023-01-25T00:07:36.855Z,76.32
2023-01-25T00:08:58.735Z,79.38
2023-01-25T00:10:20.228Z,75.55
2023-01-25T00:11:41.220Z,73.28
2023-01-25T00:13:01.496Z,73.35
2023-01-25T00:14:22.405Z,81.75
2023-01-25T00:15:43.074Z,72.65
2023-01-25T00:17:03.875Z,78.90
2023-01-25T00:18:24.659Z,78.13
2023-01-25T00:19:45.477Z,83.05
2023-01-25T00:21:13.229Z,75.40
2023-01-25T00:22:33.855Z,77.57
2023-01-25T00:23:54.801Z,76.88
2023-01-25T00:25:16.920Z,74.88
2023-01-25T00:26:37.704Z,73.82
2023-01-25T00:27:58.335Z,78.70
2023-01-25T00:29:19.134Z,74.25
2023-01-25T00:30:39.548Z,79.93
2023-01-25T00:32:08.120Z,74.87
2023-01-25T00:33:35.259Z,76.25
2023-01-25T00:34:56.023Z,76.53
2023-01-25T00:36:30.749Z,72.28
2023-01-25T00:37:53.206Z,77.88
2023-01-25T00:39:14.191Z,79.75
2023-01-25T00:40:36.300Z,77.57
2023-01-25T00:41:57.182Z,74.53
2023-01-25T00:43:17.558Z,78.20
2023-01-25T00:44:38.597Z,73.40
2023-01-25T00:46:00.844Z,79.40
2023-01-25T00:47:21.656Z,75.78
2023-01-25T00:48:42.181Z,78.72
2023-01-25T00:50:02.893Z,74.10
2023-01-25T00:51:24.208Z,73.15
2023-01-25T00:52:44.793Z,76.55
2023-01-25T00:54:05.472Z,78.95
2023-01-25T00:55:26.274Z,78.25
2023-01-25T00:56:48.743Z,79.68
2023-01-25T00:58:08.988Z,80.82
2023-01-25T00:59:29.578Z,83.60
2023-01-25T01:00:52.216Z,80.95
2023-01-25T01:02:13.647Z,82.63
2023-01-25T01:03:34.106Z,81.72
2023-01-25T01:04:54.852Z,86.07
2023-01-25T01:06:15.380Z,82.93
2023-01-25T01:07:35.969Z,90.63
2023-01-25T01:08:56.828Z,82.88
2023-01-25T01:10:17.454Z,76.05
2023-01-25T01:13:00.546Z,91.20
2023-01-25T01:14:22.680Z,89.13
2023-01-25T01:15:43.221Z,86.00
2023-01-25T01:17:03.887Z,78.30
2023-01-25T01:18:24.681Z,78.38
2023-01-25T01:19:45.446Z,78.78
2023-01-25T01:21:07.611Z,73.22
2023-01-25T01:22:28.383Z,77.82
2023-01-25T01:23:49.480Z,78.63
2023-01-25T01:25:10.470Z,79.65
2023-01-25T01:26:31.221Z,79.03
2023-01-25T01:27:51.656Z,79.15
2023-01-25T01:29:13.842Z,79.20
2023-01-25T01:30:34.509Z,82.20
2023-01-25T01:31:55.218Z,81.50
2023-01-25T01:33:16.094Z,80.80
2023-01-25T01:34:36.986Z,79.70
2023-01-25T01:35:57.822Z,83.40
2023-01-25T01:37:18.526Z,87.57
2023-01-25T01:38:39.282Z,88.30
2023-01-25T01:40:00.170Z,84.53
2023-01-25T01:41:21.190Z,82.45
2023-01-25T01:42:57.105Z,83.60
2023-01-25T01:44:21.048Z,84.65
2023-01-25T01:45:53.046Z,83.65
2023-01-25T01:47:16.000Z,83.70
2023-01-25T01:48:40.074Z,80.82
2023-01-25T01:50:03.921Z,88.70
2023-01-25T01:51:28.225Z,86.72
2023-01-25T01:52:49.107Z,81.00
2023-01-25T01:54:12.684Z,80.38
2023-01-25T01:55:34.008Z,84.05
2023-01-25T01:56:57.648Z,80.72
2023-01-25T01:58:18.552Z,84.45
2023-01-25T01:59:44.542Z,79.63
2023-01-25T02:01:05.526Z,90.57
2023-01-25T02:02:26.508Z,90.65
2023-01-25T02:03:47.972Z,89.00
2023-01-25T02:05:12.539Z,90.78
2023-01-25T02:06:40.002Z,87.65
2023-01-25T02:08:00.997Z,82.75
2023-01-25T02:09:23.906Z,83.53
2023-01-25T02:10:44.847Z,81.57
2023-01-25T02:12:06.875Z,89.10
2023-01-25T02:13:27.745Z,80.88
2023-01-25T02:14:51.457Z,91.22
2023-01-25T02:16:15.298Z,85.25
2023-01-25T02:17:37.748Z,90.97
2023-01-25T02:18:59.344Z,91.25
2023-01-25T02:20:23.585Z,92.43
2023-01-25T02:21:46.239Z,90.25
2023-01-25T02:23:11.866Z,89.80
2023-01-25T02:24:32.995Z,90.10
2023-01-25T02:25:55.319Z,92.80
2023-01-25T02:27:16.308Z,92.22
2023-01-25T02:28:39.859Z,90.45
2023-01-25T02:30:00.767Z,96.45
2023-01-25T02:31:21.498Z,94.35
2023-01-25T02:32:41.879Z,93.60
2023-01-25T02:34:02.560Z,93.50
2023-01-25T02:35:25.667Z,96.85
2023-01-25T02:36:46.100Z,87.05
2023-01-25T02:38:07.512Z,89.15
2023-01-25T02:39:28.034Z,90.60
2023-01-25T02:40:51.179Z,89.32
2023-01-25T02:42:13.040Z,87.07
2023-01-25T02:43:34.467Z,86.88
2023-01-25T02:44:54.851Z,92.88
2023-01-25T02:46:20.629Z,90.45
2023-01-25T02:47:41.061Z,95.35
2023-01-25T02:49:02.398Z,87.17
2023-01-25T02:50:23.670Z,93.95
2023-01-25T02:51:46.141Z,90.25
2023-01-25T02:53:06.601Z,85.28
2023-01-25T02:54:27.306Z,90.97
2023-01-25T02:55:47.807Z,88.20
2023-01-25T02:57:08.606Z,96.07
2023-01-25T02:58:30.628Z,95.10
2023-01-25T02:59:51.410Z,97.13
2023-01-25T03:01:13.207Z,92.22
2023-01-25T03:02:33.850Z,90.28
2023-01-25T03:03:54.599Z,95.18
2023-01-25T03:05:15.319Z,87.97
2023-01-25T03:06:36.886Z,97.53
2023-01-25T03:09:17.845Z,94.38
2023-01-25T03:10:39.043Z,98.45
2023-01-25T03:11:59.733Z,101.68
2023-01-25T03:13:20.230Z,90.80
2023-01-25T03:14:42.539Z,95.97
2023-01-25T03:16:04.864Z,93.15
2023-01-25T03:17:25.371Z,85.32
2023-01-25T03:18:46.039Z,96.45
2023-01-25T03:20:07.566Z,87.43
2023-01-25T03:21:28.465Z,87.93
2023-01-25T03:22:49.252Z,89.03
2023-01-25T03:24:10.380Z,88.20
2023-01-25T03:25:30.729Z,91.90
2023-01-25T03:26:51.312Z,93.72
2023-01-25T03:28:12.192Z,91.35
2023-01-25T03:29:33.168Z,87.55
2023-01-25T03:30:55.288Z,88.82
2023-01-25T03:32:15.995Z,91.63
2023-01-25T03:33:36.552Z,89.32
2023-01-25T03:34:56.974Z,89.15
2023-01-25T03:36:17.548Z,89.32
2023-01-25T03:37:38.454Z,92.03
2023-01-25T03:38:59.299Z,92.15
2023-01-25T03:40:20.282Z,94.00
2023-01-25T03:41:40.963Z,92.10
2023-01-25T03:43:02.483Z,89.50
2023-01-25T03:44:23.006Z,92.38
2023-01-25T03:45:43.752Z,92.13
2023-01-25T03:47:05.788Z,90.25
2023-01-25T03:48:27.478Z,90.47
2023-01-25T03:51:08.862Z,93.40
2023-01-25T03:53:18.050Z,91.70
2023-01-25T03:54:38.944Z,92.53
2023-01-25T03:56:01.547Z,89.75
2023-01-25T03:57:21.877Z,90.07
2023-01-25T03:58:42.574Z,95.72
2023-01-25T04:00:04.892Z,95.43
2023-01-25T04:01:25.686Z,92.70
2023-01-25T04:02:47.767Z,89.68
2023-01-25T04:04:08.140Z,90.50
2023-01-25T04:05:28.865Z,95.50
2023-01-25T04:06:49.650Z,99.18
2023-01-25T04:08:10.231Z,98.50
2023-01-25T04:09:30.940Z,89.60
2023-01-25T04:10:51.646Z,95.65
2023-01-25T04:12:12.270Z,93.38
2023-01-25T04:13:33.849Z,96.70
2023-01-25T04:14:54.413Z,93.88
2023-01-25T04:16:14.904Z,99.55
2023-01-25T04:17:35.498Z,97.43
2023-01-25T04:18:57.914Z,98.25
2023-01-25T04:20:18.629Z,99.45
2023-01-25T04:21:39.277Z,97.63
2023-01-25T04:23:00.003Z,90.93
2023-01-25T04:24:20.790Z,97.47
2023-01-25T04:25:41.592Z,102.33
2023-01-25T04:27:02.155Z,104.65
2023-01-25T04:28:23.317Z,98.85
2023-01-25T04:29:43.557Z,97.13
2023-01-25T04:31:04.333Z,100.28
2023-01-25T04:32:24.830Z,97.95
2023-01-25T04:33:45.336Z,98.73
2023-01-25T04:35:08.432Z,93.97
2023-01-25T04:36:29.132Z,99.35
2023-01-25T04:37:54.014Z,99.53
2023-01-25T04:39:14.370Z,97.15
2023-01-25T04:40:34.801Z,102.13
2023-01-25T04:41:55.389Z,111.18
2023-01-25T04:43:16.905Z,100.38
2023-01-25T04:44:37.274Z,105.72
2023-01-25T04:45:57.849Z,98.50
2023-01-25T04:47:18.208Z,106.80
2023-01-25T04:48:38.830Z,101.90
2023-01-25T04:49:59.769Z,100.70
2023-01-25T04:51:22.008Z,104.72
2023-01-25T04:52:43.943Z,100.07
2023-01-25T04:54:04.318Z,104.82
2023-01-25T04:55:25.161Z,101.13
2023-01-25T04:56:45.881Z,108.05
2023-01-25T04:58:06.577Z,101.65
2023-01-25T04:59:26.955Z,104.13
2023-01-25T05:00:47.799Z,107.88
2023-01-25T05:02:08.466Z,103.80
2023-01-25T05:03:29.228Z,108.68
2023-01-25T05:04:49.911Z,109.53
2023-01-25T05:06:10.820Z,109.82
2023-01-25T05:07:32.829Z,112.05
2023-01-25T05:08:53.218Z,114.50
2023-01-25T05:10:14.118Z,117.20
2023-01-25T05:11:34.547Z,111.68
2023-01-25T05:12:55.007Z,110.30
2023-01-25T05:14:16.079Z,117.03
2023-01-25T05:15:36.611Z,113.95
2023-01-25T05:16:57.173Z,109.97
2023-01-25T05:18:17.769Z,107.20
2023-01-25T05:19:38.521Z,117.30
2023-01-25T05:20:59.370Z,117.15
2023-01-25T05:22:20.063Z,114.90
2023-01-25T05:23:42.225Z,118.00
2023-01-25T05:25:03.059Z,116.78
2023-01-25T05:26:24.013Z,109.32
2023-01-25T05:27:44.918Z,112.07
2023-01-25T05:29:05.732Z,111.80
2023-01-25T05:30:26.334Z,111.47
2023-01-25T05:31:47.096Z,108.82
2023-01-25T05:33:07.761Z,111.80
2023-01-25T05:34:28.575Z,111.85
2023-01-25T05:35:49.226Z,113.38
2023-01-25T05:37:11.327Z,108.93
2023-01-25T05:38:31.844Z,107.13
2023-01-25T05:39:53.852Z,108.60
2023-01-25T05:41:15.120Z,110.03
2023-01-25T05:42:35.951Z,113.78
2023-01-25T05:43:56.844Z,110.53
2023-01-25T05:45:17.761Z,111.82
2023-01-25T05:46:38.521Z,116.47
2023-01-25T05:47:59.805Z,110.63
2023-01-25T05:49:20.205Z,111.00
2023-01-25T05:50:41.042Z,114.45
2023-01-25T05:52:01.570Z,116.03
2023-01-25T05:53:25.323Z,117.60
2023-01-25T05:54:45.757Z,114.82
2023-01-25T05:56:09.518Z,113.90
2023-01-25T05:57:30.279Z,115.95
2023-01-25T05:58:53.508Z,120.03
2023-01-25T06:00:14.831Z,125.38
2023-01-25T06:01:35.247Z,124.82
2023-01-25T06:02:56.096Z,110.93
2023-01-25T06:04:17.277Z,115.57
2023-01-25T06:05:37.633Z,112.30
2023-01-25T06:06:58.685Z,114.65
2023-01-25T06:08:19.044Z,115.13
2023-01-25T06:09:39.799Z,112.05
2023-01-25T06:11:08.159Z,114.15
2023-01-25T06:12:29.601Z,107.43
2023-01-25T06:13:51.201Z,109.20
2023-01-25T06:15:12.096Z,115.75
2023-01-25T06:16:32.594Z,114.47
2023-01-25T06:17:55.043Z,109.68
2023-01-25T06:19:15.526Z,113.82
2023-01-25T06:20:36.049Z,109.05
2023-01-25T06:21:56.805Z,108.10
2023-01-25T06:23:17.503Z,114.17
2023-01-25T06:24:38.169Z,111.25
2023-01-25T06:25:58.930Z,117.53
2023-01-25T06:27:20.813Z,115.63
2023-01-25T06:28:41.889Z,120.50
2023-01-25T06:30:02.146Z,116.55
2023-01-25T06:31:22.909Z,121.85
2023-01-25T06:32:43.520Z,120.20
2023-01-25T06:34:04.043Z,113.70
2023-01-25T06:35:24.935Z,118.57
2023-01-25T06:36:45.351Z,112.53
2023-01-25T06:38:06.392Z,117.80
2023-01-25T06:39:27.116Z,118.93
2023-01-25T06:40:47.795Z,113.88
2023-01-25T06:42:08.436Z,111.18
2023-01-25T06:43:31.365Z,111.40
2023-01-25T06:44:52.098Z,115.43
2023-01-25T06:46:12.809Z,117.30
2023-01-25T06:47:33.338Z,119.05
2023-01-25T06:48:53.955Z,116.82
2023-01-25T06:50:15.042Z,122.43
2023-01-25T06:51:35.651Z,122.50
2023-01-25T06:52:56.590Z,120.80
2023-01-25T06:54:16.948Z,123.45
2023-01-25T06:55:37.662Z,119.25
2023-01-25T06:56:58.208Z,120.40
2023-01-25T06:58:18.713Z,117.93
2023-01-25T06:59:40.626Z,127.10
2023-01-25T07:01:02.830Z,128.77
2023-01-25T07:02:23.587Z,130.20
2023-01-25T07:03:44.212Z,122.30
2023-01-25T07:05:04.931Z,134.82
2023-01-25T07:06:29.113Z,128.98
2023-01-25T07:07:49.518Z,132.75
2023-01-25T07:09:11.853Z,130.50
2023-01-25T07:10:33.885Z,128.90
2023-01-25T07:11:54.630Z,124.85
2023-01-25T07:13:15.492Z,129.80
2023-01-25T07:14:36.081Z,127.85
2023-01-25T07:15:59.250Z,132.10
2023-01-25T07:17:19.851Z,123.72
2023-01-25T07:18:40.577Z,131.50
2023-01-25T07:20:01.376Z,131.40
2023-01-25T07:21:23.507Z,125.47
2023-01-25T07:22:44.233Z,127.63
2023-01-25T07:24:05.699Z,130.05
2023-01-25T07:26:46.752Z,132.82
2023-01-25T07:28:07.153Z,137.13
2023-01-25T07:29:27.901Z,129.45
2023-01-25T07:30:48.391Z,131.63
2023-01-25T07:32:12.451Z,129.60
2023-01-25T07:33:33.205Z,134.15
2023-01-25T07:34:53.707Z,138.37
2023-01-25T07:36:14.063Z,138.18
2023-01-25T07:37:34.494Z,136.65
2023-01-25T07:38:55.554Z,135.13
2023-01-25T07:40:16.436Z,128.18
2023-01-25T07:41:36.779Z,139.88
2023-01-25T07:42:57.221Z,137.77
2023-01-25T07:44:17.751Z,134.55
2023-01-25T07:45:38.121Z,131.93
2023-01-25T07:46:58.750Z,133.27
2023-01-25T07:48:21.066Z,134.33
2023-01-25T07:49:41.730Z,135.32
2023-01-25T07:51:03.944Z,131.57
2023-01-25T07:52:24.333Z,131.07
2023-01-25T07:53:44.953Z,120.72
2023-01-25T07:55:06.064Z,131.07
2023-01-25T07:56:29.819Z,123.10
2023-01-25T07:57:54.349Z,126.88
2023-01-25T07:59:14.581Z,126.50
2023-01-25T08:00:35.178Z,124.13
2023-01-25T08:01:55.727Z,124.55
2023-01-25T08:03:16.125Z,124.15
2023-01-25T08:04:38.118Z,130.87
2023-01-25T08:05:58.821Z,134.73
2023-01-25T08:07:19.441Z,148.32
2023-01-25T08:08:41.778Z,152.15
2023-01-25T08:10:02.380Z,133.75
2023-01-25T08:11:24.077Z,128.73
2023-01-25T08:12:45.536Z,124.35
2023-01-25T08:14:05.919Z,134.30
2023-01-25T08:15:26.683Z,133.45
2023-01-25T08:16:47.268Z,133.53
2023-01-25T08:18:08.125Z,144.50
2023-01-25T08:19:28.783Z,139.95
2023-01-25T08:20:50.508Z,148.85
2023-01-25T08:22:11.075Z,132.05
2023-01-25T08:23:31.745Z,141.50
2023-01-25T08:24:52.074Z,130.82
2023-01-25T08:26:15.414Z,140.73
2023-01-25T08:27:36.570Z,132.10
2023-01-25T08:28:57.185Z,131.00
2023-01-25T08:30:18.092Z,132.13
2023-01-25T08:31:41.402Z,125.68
2023-01-25T08:33:01.688Z,133.40
2023-01-25T08:34:22.081Z,139.60
2023-01-25T08:35:42.798Z,131.57
2023-01-25T08:37:04.986Z,141.18
2023-01-25T08:38:25.759Z,128.50
2023-01-25T08:39:46.557Z,128.05
2023-01-25T08:41:08.129Z,127.15
2023-01-25T08:43:48.681Z,131.65
2023-01-25T08:45:10.400Z,129.93
2023-01-25T08:46:32.405Z,129.75
2023-01-25T08:47:53.021Z,129.18
2023-01-25T08:49:13.875Z,131.90
2023-01-25T08:50:34.647Z,126.68
2023-01-25T08:51:55.592Z,146.15
2023-01-25T08:53:17.590Z,137.75
2023-01-25T08:54:38.387Z,145.63
2023-01-25T08:57:23.517Z,139.63
2023-01-25T08:58:46.837Z,137.15
2023-01-25T09:00:09.451Z,146.95
2023-01-25T09:01:30.156Z,133.20
2023-01-25T09:02:50.899Z,134.43
2023-01-25T09:04:11.696Z,140.23
2023-01-25T09:05:33.890Z,139.00
2023-01-25T09:06:54.757Z,137.27
2023-01-25T09:08:16.726Z,138.70
2023-01-25T09:09:37.378Z,138.13
2023-01-25T09:11:01.150Z,141.65
2023-01-25T09:12:21.852Z,135.13
2023-01-25T09:13:42.797Z,138.00
2023-01-25T09:15:03.533Z,145.03
2023-01-25T09:16:25.309Z,135.27
2023-01-25T09:17:45.719Z,135.50
2023-01-25T09:19:06.451Z,141.02
2023-01-25T09:20:27.078Z,136.85
2023-01-25T09:21:48.317Z,146.98
2023-01-25T09:23:08.986Z,136.93
2023-01-25T09:24:31.188Z,136.55
2023-01-25T09:25:57.135Z,134.65
2023-01-25T09:27:17.885Z,141.55
2023-01-25T09:28:38.648Z,131.45
2023-01-25T09:30:13.713Z,130.43
2023-01-25T09:31:39.619Z,147.88
2023-01-25T09:33:00.530Z,133.73
2023-01-25T09:34:21.191Z,137.13
2023-01-25T09:35:48.054Z,142.00
2023-01-25T09:37:08.576Z,135.00
2023-01-25T09:38:29.417Z,154.23
2023-01-25T09:39:51.528Z,140.95
2023-01-25T09:41:25.533Z,134.73
2023-01-25T09:42:56.743Z,146.85
2023-01-25T09:44:28.346Z,133.85
2023-01-25T09:45:49.057Z,151.13
2023-01-25T09:47:13.766Z,150.82
2023-01-25T09:48:38.551Z,139.02
2023-01-25T09:50:30.562Z,130.95
2023-01-25T09:52:02.636Z,137.68
2023-01-25T09:53:28.170Z,135.63
2023-01-25T09:54:49.014Z,142.98
2023-01-25T09:56:13.483Z,130.43
2023-01-25T09:57:37.118Z,134.02
2023-01-25T09:58:59.854Z,147.00
2023-01-25T10:00:23.327Z,134.68
2023-01-25T10:01:47.521Z,134.85
2023-01-25T10:03:13.623Z,139.73
2023-01-25T10:04:37.759Z,134.32
2023-01-25T10:05:59.785Z,132.20
2023-01-25T10:07:25.468Z,133.50
2023-01-25T10:08:53.059Z,129.85
2023-01-25T10:10:17.901Z,128.27
2023-01-25T10:11:40.302Z,130.95
2023-01-25T10:13:00.779Z,128.38
2023-01-25T10:14:21.161Z,136.60
2023-01-25T10:15:44.779Z,142.37
2023-01-25T10:17:09.577Z,149.35
2023-01-25T10:18:34.597Z,133.27
2023-01-25T10:20:08.529Z,132.27
2023-01-25T10:21:32.479Z,138.98
2023-01-25T10:22:59.585Z,138.75
2023-01-25T10:24:31.520Z,136.05
2023-01-25T10:25:57.238Z,131.82
2023-01-25T10:27:26.799Z,133.77
2023-01-25T10:28:52.967Z,132.77
2023-01-25T10:30:32.276Z,128.15
2023-01-25T10:31:54.569Z,133.30
2023-01-25T10:33:17.263Z,136.45
2023-01-25T10:34:55.336Z,121.15
2023-01-25T10:36:19.305Z,124.95
2023-01-25T10:37:40.019Z,125.30
2023-01-25T10:39:00.659Z,135.45
2023-01-25T10:40:23.251Z,121.70
2023-01-25T10:41:48.049Z,135.35
2023-01-25T10:43:15.853Z,123.93
2023-01-25T10:44:35.695Z,129.15
2023-01-25T10:45:56.360Z,124.72
2023-01-25T10:47:19.511Z,133.38
2023-01-25T10:48:40.671Z,135.05
2023-01-25T10:50:01.606Z,129.77
2023-01-25T10:51:33.074Z,125.30
2023-01-25T10:54:18.641Z,127.07
2023-01-25T10:55:57.583Z,132.90
2023-01-25T10:57:20.575Z,137.07
2023-01-25T10:58:43.932Z,132.77
2023-01-25T11:00:07.017Z,140.05
2023-01-25T11:01:30.521Z,138.05
2023-01-25T11:02:51.858Z,132.90
2023-01-25T11:04:33.416Z,131.90
2023-01-25T11:05:55.325Z,134.07
2023-01-25T11:07:26.712Z,138.63
2023-01-25T11:10:28.149Z,132.35
2023-01-25T11:11:57.310Z,132.70
2023-01-25T11:13:25.012Z,148.63
2023-01-25T11:14:52.995Z,150.77
2023-01-25T11:16:22.388Z,143.05
2023-01-25T11:17:43.667Z,133.75
2023-01-25T11:19:25.763Z,138.40
2023-01-25T11:20:46.977Z,139.27
2023-01-25T11:22:22.735Z,146.40
2023-01-25T11:23:49.071Z,129.68
2023-01-25T11:25:26.361Z,137.88
2023-01-25T11:26:47.117Z,143.05
2023-01-25T11:28:12.308Z,147.82
2023-01-25T11:29:33.719Z,148.57
2023-01-25T11:30:56.694Z,139.80
2023-01-25T11:32:19.601Z,138.07
2023-01-25T11:33:43.958Z,144.23
2023-01-25T11:35:13.792Z,138.43
2023-01-25T11:36:52.190Z,145.65
2023-01-25T11:38:15.492Z,151.35
2023-01-25T11:39:45.096Z,161.27
2023-01-25T11:41:11.885Z,158.20
2023-01-25T11:42:45.494Z,151.68
2023-01-25T11:44:50.003Z,149.30
2023-01-25T11:46:31.127Z,144.50
2023-01-25T11:48:02.001Z,148.60
2023-01-25T11:49:36.265Z,146.07
2023-01-25T11:51:07.869Z,151.85
2023-01-25T11:52:51.809Z,143.45
2023-01-25T11:54:39.635Z,137.45
2023-01-25T11:56:10.578Z,133.88
2023-01-25T11:57:49.807Z,143.82
2023-01-25T11:59:23.492Z,146.55
2023-01-25T12:00:55.129Z,139.93
2023-01-25T12:02:46.847Z,151.82
2023-01-25T12:04:38.487Z,146.02
2023-01-25T12:06:02.674Z,142.73
2023-01-25T12:07:30.602Z,155.27
2023-01-25T12:09:09.557Z,152.07
2023-01-25T12:10:40.798Z,168.35
2023-01-25T12:12:10.171Z,158.90
2023-01-25T12:13:41.316Z,160.00
2023-01-25T12:15:22.997Z,157.80
2023-01-25T12:16:57.387Z,160.10
2023-01-25T12:18:42.075Z,165.07
2023-01-25T12:20:19.062Z,164.63
2023-01-25T12:21:51.184Z,159.48
2023-01-25T12:23:22.435Z,151.40
2023-01-25T12:24:50.943Z,158.90
2023-01-25T12:26:21.305Z,155.43
2023-01-25T12:28:05.341Z,161.02
2023-01-25T12:29:34.559Z,144.77
2023-01-25T12:31:00.449Z,162.48
2023-01-25T12:32:31.632Z,151.32
2023-01-25T12:33:58.300Z,148.75
2023-01-25T12:35:28.666Z,146.38
2023-01-25T12:36:58.188Z,156.23
2023-01-25T12:38:25.683Z,144.50
2023-01-25T12:39:54.000Z,148.93
2023-01-25T12:41:23.704Z,141.68
2023-01-25T12:42:50.561Z,154.70
2023-01-25T12:44:17.173Z,137.35
2023-01-25T12:45:39.300Z,135.68
2023-01-25T12:47:05.007Z,142.90
2023-01-25T12:48:28.660Z,136.60
2023-01-25T12:49:53.170Z,136.48
2023-01-25T12:51:17.217Z,141.93
2023-01-25T12:52:42.740Z,137.77
2023-01-25T12:54:07.642Z,149.90
2023-01-25T12:55:28.949Z,133.68
2023-01-25T12:56:56.525Z,143.05
2023-01-25T12:58:38.268Z,140.90
2023-01-25T13:00:13.096Z,139.40
2023-01-25T13:01:38.436Z,148.95
2023-01-25T13:03:11.536Z,145.18
2023-01-25T13:04:45.660Z,140.23
2023-01-25T13:06:15.897Z,147.13
2023-01-25T13:07:50.799Z,137.57
2023-01-25T13:09:18.943Z,138.77
2023-01-25T13:10:46.042Z,131.23
2023-01-25T13:12:11.700Z,131.48
2023-01-25T13:13:35.228Z,127.65
2023-01-25T13:14:56.227Z,141.95
2023-01-25T13:16:32.098Z,130.93
2023-01-25T13:17:53.535Z,129.63
2023-01-25T13:19:22.838Z,127.32
2023-01-25T13:20:49.448Z,129.18
2023-01-25T13:22:14.321Z,132.77
2023-01-25T13:23:36.495Z,137.65
2023-01-25T13:25:20.459Z,129.77
2023-01-25T13:27:06.127Z,131.98
2023-01-25T13:28:44.959Z,137.80
2023-01-25T13:30:25.771Z,132.65
2023-01-25T13:31:51.902Z,130.18
2023-01-25T13:33:32.731Z,137.05
2023-01-25T13:35:00.651Z,143.70
2023-01-25T13:36:43.728Z,136.82
2023-01-25T13:38:29.310Z,134.07
2023-01-25T13:39:51.769Z,130.98
2023-01-25T13:41:15.819Z,137.18
2023-01-25T13:42:37.479Z,143.60
2023-01-25T13:44:20.073Z,138.10
2023-01-25T13:45:41.875Z,140.15
2023-01-25T13:47:04.799Z,148.07
2023-01-25T13:48:29.148Z,140.45
2023-01-25T13:50:03.762Z,134.32
2023-01-25T13:51:25.442Z,146.43
2023-01-25T13:52:57.155Z,146.13
2023-01-25T13:54:19.531Z,145.13
2023-01-25T13:55:42.187Z,142.68
2023-01-25T13:57:03.998Z,138.07
2023-01-25T13:58:26.333Z,140.65
2023-01-25T13:59:52.280Z,145.85
2023-01-25T14:01:18.330Z,137.57
2023-01-25T14:02:39.877Z,138.75
2023-01-25T14:04:03.535Z,145.57
2023-01-25T14:05:25.550Z,144.73
2023-01-25T14:06:55.118Z,139.00
2023-01-25T14:08:18.447Z,131.40
2023-01-25T14:09:42.898Z,125.10
2023-01-25T14:11:03.616Z,132.45
2023-01-25T14:12:32.366Z,136.88
2023-01-25T14:13:59.967Z,139.77
2023-01-25T14:15:23.564Z,120.75
2023-01-25T14:16:45.601Z,130.65
2023-01-25T14:18:14.180Z,124.85
2023-01-25T14:19:37.326Z,116.63
2023-01-25T14:21:13.260Z,131.85
2023-01-25T14:22:34.912Z,131.18
2023-01-25T14:24:09.800Z,125.13
2023-01-25T14:25:33.459Z,134.73
2023-01-25T14:26:54.638Z,132.52
2023-01-25T14:28:16.290Z,136.93
2023-01-25T14:30:59.244Z,142.32
2023-01-25T14:32:25.391Z,125.72
2023-01-25T14:33:46.311Z,130.23
2023-01-25T14:35:49.330Z,133.05
2023-01-25T14:37:16.633Z,137.68
2023-01-25T14:38:38.928Z,131.00
2023-01-25T14:40:00.186Z,126.15
2023-01-25T14:41:26.585Z,136.70
2023-01-25T14:42:47.424Z,131.18
2023-01-25T14:44:13.232Z,131.10
2023-01-25T14:45:34.544Z,133.95
2023-01-25T14:47:21.444Z,139.60
2023-01-25T14:48:45.086Z,143.25
2023-01-25T14:50:34.151Z,138.85
2023-01-25T14:51:59.591Z,143.27
2023-01-25T14:53:21.892Z,156.45
2023-01-25T14:54:47.875Z,141.32
2023-01-25T14:56:27.072Z,145.23
2023-01-25T14:57:48.228Z,150.77
2023-01-25T14:59:26.177Z,139.48
2023-01-25T15:00:52.484Z,147.07
2023-01-25T15:02:19.440Z,151.30
2023-01-25T15:03:43.767Z,147.68
2023-01-25T15:05:15.264Z,142.25
2023-01-25T15:06:48.161Z,138.02
2023-01-25T15:08:16.575Z,135.00
2023-01-25T15:09:39.604Z,137.57
2023-01-25T15:11:02.878Z,132.57
2023-01-25T15:12:29.534Z,136.00
2023-01-25T15:14:01.224Z,139.75
2023-01-25T15:16:43.734Z,128.35
2023-01-25T15:18:04.746Z,134.60
2023-01-25T15:19:27.977Z,130.20
2023-01-25T15:20:48.622Z,142.40
2023-01-25T15:22:10.692Z,139.63
2023-01-25T15:23:31.766Z,132.68
2023-01-25T15:26:25.000Z,130.65
2023-01-25T15:27:48.092Z,140.30
2023-01-25T15:29:16.154Z,127.80
2023-01-25T15:30:37.408Z,126.32
2023-01-25T15:33:21.159Z,128.45
2023-01-25T15:34:44.430Z,139.77
2023-01-25T15:36:07.562Z,125.50
2023-01-25T15:37:28.629Z,134.00
2023-01-25T15:38:49.230Z,136.80
2023-01-25T15:40:12.242Z,128.32
2023-01-25T15:41:33.274Z,127.63
2023-01-25T15:42:56.009Z,135.85
2023-01-25T15:44:17.020Z,125.93
2023-01-25T15:45:37.966Z,129.32
2023-01-25T15:46:59.391Z,136.57
2023-01-25T15:48:28.068Z,129.80
2023-01-25T15:49:49.133Z,126.03
2023-01-25T15:51:11.952Z,126.53
2023-01-25T15:52:32.898Z,130.77
2023-01-25T15:53:53.467Z,131.20
2023-01-25T15:55:14.648Z,127.70
2023-01-25T15:56:36.466Z,127.57
2023-01-25T15:57:59.108Z,140.73
2023-01-25T15:59:20.303Z,135.13
2023-01-25T16:00:50.131Z,145.50
2023-01-25T16:02:12.297Z,141.02
2023-01-25T16:03:33.314Z,131.95
2023-01-25T16:04:54.282Z,137.18
2023-01-25T16:06:27.418Z,140.05
2023-01-25T16:07:48.085Z,141.95
2023-01-25T16:09:21.144Z,140.63
2023-01-25T16:10:45.253Z,147.07
2023-01-25T16:12:09.180Z,146.27
2023-01-25T16:13:31.510Z,152.35
2023-01-25T16:14:55.589Z,161.50
2023-01-25T16:16:21.713Z,155.40
2023-01-25T16:17:42.551Z,157.88
2023-01-25T16:19:03.643Z,159.60
2023-01-25T16:20:24.884Z,172.48
2023-01-25T16:21:45.559Z,159.55
2023-01-25T16:23:06.163Z,160.40
2023-01-25T16:24:27.073Z,160.88
2023-01-25T16:25:48.579Z,157.23
2023-01-25T16:27:15.144Z,157.30
2023-01-25T16:28:39.195Z,154.73
2023-01-25T16:30:03.114Z,165.95
2023-01-25T16:31:32.955Z,168.35
2023-01-25T16:32:58.344Z,161.98
2023-01-25T16:34:19.388Z,169.93
2023-01-25T16:35:40.292Z,170.63
2023-01-25T16:37:06.038Z,167.45
2023-01-25T16:38:26.894Z,169.50
2023-01-25T16:39:47.672Z,177.25
2023-01-25T16:41:08.863Z,166.77
2023-01-25T16:43:52.385Z,176.55
2023-01-25T16:45:21.015Z,173.95
2023-01-25T16:46:46.235Z,164.73
2023-01-25T16:48:19.062Z,166.27
2023-01-25T16:49:41.287Z,162.65
2023-01-25T16:51:02.984Z,167.65
2023-01-25T16:52:26.947Z,175.75
2023-01-25T16:53:59.294Z,175.45
2023-01-25T16:55:34.079Z,173.02
2023-01-25T16:56:55.712Z,173.43
2023-01-25T16:59:40.189Z,178.40
2023-01-25T17:01:10.917Z,184.77
2023-01-25T17:02:32.752Z,178.20
2023-01-25T17:03:57.279Z,174.68
2023-01-25T17:05:21.436Z,186.32
2023-01-25T17:06:44.465Z,184.05
2023-01-25T17:08:06.025Z,177.35
2023-01-25T17:09:36.325Z,179.35
2023-01-25T17:10:59.353Z,180.10
2023-01-25T17:12:22.549Z,175.18
2023-01-25T17:13:47.965Z,189.77
2023-01-25T17:15:18.628Z,187.40
2023-01-25T17:16:44.400Z,186.43
2023-01-25T17:18:05.844Z,187.98
2023-01-25T17:21:01.453Z,187.48
2023-01-25T17:22:22.855Z,191.73
2023-01-25T17:23:58.502Z,205.02
2023-01-25T17:25:20.631Z,205.15
2023-01-25T17:26:43.776Z,200.52
2023-01-25T17:28:09.321Z,207.68
2023-01-25T17:29:38.630Z,202.68
2023-01-25T17:31:04.893Z,222.00
2023-01-25T17:32:35.062Z,225.70
2023-01-25T17:34:24.489Z,218.98
2023-01-25T17:36:02.707Z,223.25
2023-01-25T17:37:34.234Z,236.50
2023-01-25T17:38:55.271Z,233.25
2023-01-25T17:40:17.252Z,236.75
2023-01-25T17:41:38.646Z,245.30
2023-01-25T17:42:59.781Z,235.35
2023-01-25T17:44:26.468Z,240.43
2023-01-25T17:45:50.041Z,248.00
2023-01-25T17:47:14.857Z,250.30
2023-01-25T17:48:36.032Z,248.23
2023-01-25T17:49:57.142Z,246.40
2023-01-25T17:52:39.814Z,226.93
2023-01-25T17:54:01.216Z,255.02
2023-01-25T17:55:22.268Z,262.50
2023-01-25T17:56:43.783Z,251.82
2023-01-25T17:58:04.872Z,251.77
2023-01-25T18:00:52.422Z,256.48